METAR Data
IDs: Format: Raw Decoded Include TAF

Data at: 2151 UTC 18 Apr 2021

KDTS 182056Z VRB03KT 10SM SCT070 BKN100 22/14 A2987 RMK AO2 T02170139 $
KDTS 182053Z 33005KT 10SM SCT070 BKN100 22/14 A2987 RMK AO2 SLP114 T02170144 56016 $
KDTS 181955Z 33005KT 10SM OVC070 23/13 A2987 RMK AO2 T02280128 $
KDTS 181953Z 04004KT 10SM OVC070 22/13 A2987 RMK AO2 SLP116 T02220128 $
KDTS 181853Z 31006KT 10SM OVC070 22/13 A2990 RMK AO2 SLP125 T02220128 $
KDTS 181753Z 35005KT 10SM BKN075 BKN090 22/14 A2992 RMK AO2 SLP130 60000 T02170139 10217 20167 58013 $
KDTS 181653Z 36005KT 10SM SCT085 OVC110 21/13 A2994 RMK AO2 SLP137 T02110133 $
KDTS 181553Z 02004KT 10SM BKN100 20/14 A2995 RMK AO2 SLP140 T02000144 $
KDTS 181453Z 01003KT 10SM OVC050 18/14 A2996 RMK AO2 SLP143 60000 T01830139 51013 $
KDTS 181353Z 02005KT 10SM OVC048 18/13 A2996 RMK AO2 SLP143 T01780133 $
KDTS 181253Z VRB03KT 10SM BKN110 17/14 A2995 RMK AO2 RAB23E41 PRESRR SLP141 P0000 T01720144 $
KDTS 181153Z 35005KT 10SM BKN046 BKN120 17/14 A2992 RMK AO2 RAB1056E51 SLP130 P0004 60022 70186 T01670144 10178 20167 51009 $
KDTS 181053Z 35005KT 10SM FEW048 SCT100 BKN120 17/15 A2991 RMK AO2 RAE48 SLP129 P0007 T01670150 $
KDTS 180953Z AUTO 10SM -RA SCT046 OVC110 17/16 A2992 RMK AO2 RAB21 SLP131 P0002 T01720161 $
KDTS 180853Z AUTO 10SM FEW008 BKN045 BKN120 18/16 A2989 RMK AO2 RAB05E38 SLP122 P0000 60009 T01780161 56007 $
KDTS 180753Z AUTO 10SM SCT004 BKN034 OVC120 18/17 A2991 RMK AO2 RAE14 SLP126 P0001 T01780172 $
KDTS 180743Z AUTO 10SM SCT004 BKN036 OVC120 18/17 A2990 RMK AO2 RAE14 P0001 T01780172 $
KDTS 180735Z AUTO 10SM SCT004 BKN028 OVC120 18/17 A2991 RMK AO2 RAE14 P0001 T01780167 $
KDTS 180727Z AUTO 10SM SCT006 BKN060 OVC120 18/17 A2990 RMK AO2 RAE14 P0001 T01780167 $
KDTS 180653Z AUTO 7SM -RA OVC110 18/17 A2989 RMK AO2 SLP122 P0008 T01780172 $
KDTS 180553Z AUTO 10SM -RA FEW009 SCT025 BKN110 18/17 A2991 RMK AO2 RAE0456B24 SLP129 P0000 60038 T01780167 10178 20172 402060167 55011 $
KDTS 180549Z AUTO 10SM -RA SCT009 SCT025 OVC110 18/17 A2991 RMK AO2 RAE0456B24 P0000 $
KDTS 180526Z AUTO 10SM -RA BKN008 18/17 A2991 RMK AO2 RAE0456B24 CIG 008V012 P0000 T01780172 $
KDTS 180452Z AUTO 10SM -RA SCT005 SCT008 BKN120 18/17 A2989 RMK AO2 RAE25B38 SLP122 P0002 T01780172 $
KDTS 180451Z AUTO 10SM -RA SCT005 SCT008 BKN120 18/17 A2989 RMK AO2 RAE25B38 P0002 $
KDTS 180425Z AUTO 10SM BKN004 OVC110 18/17 A2987 RMK AO2 RAE25 CIG 003V008 P0002 T01780167 $
KDTS 180408Z AUTO 10SM -RA SCT004 BKN110 18/17 A2988 RMK AO2 PRESFR P0002 T01780167 $
KDTS 180353Z AUTO 5SM RA BR FEW070 BKN090 OVC110 18/17 A2990 RMK AO2 SLP125 P0018 T01780172 $
KDTS 180253Z 00000KT 6SM RA BR BKN100 OVC120 18/17 A2995 RMK AO2 PRESRR SLP140 P0012 60018 T01780167 53022 $
KDTS 180215Z 00000KT 6SM RA BR SCT009 BKN070 OVC090 18/17 A2993 RMK AO2 P0003 T01780167 $
KDTS 180153Z 00000KT 10SM -RA FEW070 BKN110 17/16 A2993 RMK AO2 PRESRR SLP133 P0003 T01720161 $
KDTS 180053Z 02003KT 7SM RA SCT021 BKN070 OVC110 17/17 A2988 RMK AO2 RAB12 SLP117 P0003 T01720167 $
KDTS 180024Z 02003KT 10SM -RA SCT008 OVC020 17/17 A2987 RMK AO2 RAB12 P0000 T01720167 $
KDTS 172353Z 05003KT 10SM BKN009 17/17 A2985 RMK AO2 RAE03B13E22 CIG 005V010 PRESRR SLP108 P0000 60099 T01720167 10200 20172 58001 $
KDTS 172310Z 05003KT 10SM SCT006 SCT070 BKN090 18/17 A2983 RMK AO2 RAE03 P0000 T01830167 $
KDTS 172253Z 31004KT 7SM -RA BKN005 BKN055 OVC090 18/17 A2985 RMK AO2 SLP106 P0018 T01830167 $
KDTS 172246Z 31004KT 5SM RA BR BKN007 BKN055 OVC090 18/17 A2984 RMK AO2 P0017 T01830167 $
KDTS 172233Z 31004KT 4SM RA BR SCT009 BKN050 OVC090 18/17 A2985 RMK AO2 LTG DSNT E AND SE PRESFR P0013 T01830167 $
KDTS 172222Z 31004KT 3SM +RA BR BKN009 BKN043 OVC080 18/17 A2989 RMK AO2 LTG DSNT E AND SE P0009 T01830172 $
KDTS 172204Z 31004KT 3SM RA BR FEW007 BKN043 OVC070 18/17 A2988 RMK AO2 LTG DSNT E-S P0003 T01830167 $
KDTS 172153Z VRB03KT 2SM VCTS RA BR SCT008 BKN046 OVC070 18/17 A2989 RMK AO2 LTG DSNT E-SW PRESRR SLP122 P0031 T01780167 $
KDTS 172147Z VRB03KT 2 1/2SM VCTS +RA BR FEW008 BKN048 OVC055 18/17 A2988 RMK AO2 LTG DSNT E AND SW P0028 $
KDTS 172133Z VRB03KT 2SM +RA BR FEW013 BKN044 OVC070 18/17 A2986 RMK AO2 LTG DSNT E AND SW AND W P0021 T01780167 $
KDTS 172111Z VRB03KT 2 1/2SM VCTS RA BR FEW006 BKN040 OVC080 18/17 A2987 RMK AO2 LTG DSNT W P0006 T01830172 $
KDTS 172101Z VRB03KT 5SM RA BR FEW006 BKN055 OVC075 18/17 A2986 RMK AO2 LTG DSNT E P0001 T01830167 $
KDTS 172053Z VRB04KT 2 1/2SM +RA BR FEW006 BKN050 OVC075 18/17 A2985 RMK AO2 LTG DSNT E SLP109 P0049 60050 T01830167 58005 $
KDTS 172036Z VRB04KT 2 1/2SM VCTS RA BR FEW004 BKN041 OVC070 18/17 A2987 RMK AO2 LTG DSNT NE AND E AND W P0042 T01830167 $
KDTS 172024Z VRB04KT 1 1/2SM VCTS +RA BR FEW009 OVC037 18/17 A2985 RMK AO2 LTG DSNT ALQDS P0035 T01830167 $
KDTS 172009Z VRB04KT 3/4SM VCTS +RA BR FEW009 SCT015 OVC042 19/17 A2988 RMK AO2 LTG DSNT N-E P0017 T01890167 $
KDTS 172006Z VRB04KT 2 1/2SM VCTS RA BR FEW009 SCT015 OVC042 19/17 A2990 RMK AO2 LTG DSNT NW-E PRESRR P0007 T01940172 $
KDTS 172000Z VRB04KT 9SM VCTS -RA FEW013 OVC042 19/17 A2988 RMK AO2 LTG DSNT NW-E PRESRR P0000 T01940167 $
KDTS 171953Z VRB04KT 10SM VCTS -RA BKN009 OVC043 19/17 A2986 RMK AO2 LTG DSNT W-NE RAB46 SLP112 P0000 T01940167 $
KDTS 171946Z VRB04KT 10SM VCTS -RA BKN009 OVC043 19/17 A2985 RMK AO2 LTG DSNT W-NE RAB46 P0000 T01940167 $
KDTS 171853Z VRB04KT 10SM BKN009 BKN043 OVC070 19/17 A2987 RMK AO2 LTG DSNT W AND NW RAB25E45 SLP114 P0001 T01940172 $
KDTS 171753Z VRB04KT 10SM OVC008 20/17 A2987 RMK AO2 RAB43E50 SLP114 P0000 60027 T02000167 10206 20167 58011 $
KDTS 171653Z VRB04KT 10SM OVC008 19/17 A2990 RMK AO2 SLP123 T01890167 $
KDTS 171553Z 33003KT 10SM BKN008 OVC060 18/16 A2990 RMK AO2 RAB17E40 SLP125 P0000 T01830161 $
KDTS 171541Z 33003KT 10SM BKN008 OVC060 19/16 A2991 RMK AO2 RAB17E40 P0000 T01890161 $
KDTS 171453Z 03004KT 10SM BKN013 OVC060 18/16 A2990 RMK AO2 SLP125 60027 T01830161 53012 $
KDTS 171444Z 03004KT 10SM BKN013 BKN080 18/16 A2990 RMK AO2 T01830161 $
KDTS 171400Z 03004KT 10SM FEW006 OVC070 17/16 A2989 RMK AO2 T01720156 $
KDTS 171353Z 06004KT 10SM BKN005 BKN039 OVC070 17/16 A2989 RMK AO2 RAE08 SLP119 P0000 T01720156 $
KDTS 171300Z 03008KT 8SM -RA BKN005 BKN039 OVC070 17/16 A2988 RMK AO2 P0000 T01670156 $
KDTS 171253Z 00000KT 2 1/2SM -RA BR BKN007 OVC037 17/16 A2988 RMK AO2 SLP117 P0027 T01670156 $
KDTS 171153Z 00000KT 2 1/2SM RA BR BKN007 OVC050 17/16 A2987 RMK AO2 RAB45 SLP113 P0002 60031 70094 T01720156 10183 20167 53008 $
KDTS 171053Z 00000KT 10SM OVC007 18/16 A2982 RMK AO2 SLP097 T01780161 $
KDTS 171009Z AUTO 10SM BKN007 BKN120 18/17 A2982 RMK AO2 PRESRR T01830167 $
KDTS 170953Z AUTO 10SM SCT007 BKN120 18/16 A2977 RMK AO2 RAE40 SLP081 P0007 T01830161 $